createdAt,value
2018-01-27T00:00:58.276Z,23.77
2018-01-27T00:03:26.215Z,22.57
2018-01-27T00:05:53.996Z,23.20
2018-01-27T00:08:21.933Z,23.20
2018-01-27T00:10:49.895Z,22.37
2018-01-27T00:13:17.796Z,24.13
2018-01-27T00:15:45.719Z,24.67
2018-01-27T00:18:13.536Z,23.80
2018-01-27T00:20:41.486Z,25.50
2018-01-27T00:23:09.389Z,25.00
2018-01-27T00:25:37.259Z,25.07
2018-01-27T00:28:05.171Z,23.83
2018-01-27T00:30:33.058Z,25.90
2018-01-27T00:33:01.905Z,24.67
2018-01-27T00:35:29.826Z,23.00
2018-01-27T00:37:57.737Z,23.20
2018-01-27T00:40:25.611Z,23.70
2018-01-27T00:42:53.552Z,21.17
2018-01-27T00:45:21.478Z,21.70
2018-01-27T00:47:49.446Z,23.70
2018-01-27T00:50:17.307Z,23.07
2018-01-27T00:52:45.249Z,24.47
2018-01-27T00:55:13.120Z,23.13
2018-01-27T00:57:40.947Z,23.43
2018-01-27T01:00:08.895Z,24.40
2018-01-27T01:02:36.852Z,22.50
2018-01-27T01:05:04.853Z,23.50
2018-01-27T01:07:32.730Z,24.50
2018-01-27T01:10:00.547Z,24.23
2018-01-27T01:12:28.403Z,25.83
2018-01-27T01:14:56.329Z,24.20
2018-01-27T01:17:24.192Z,25.10
2018-01-27T01:19:52.129Z,24.20
2018-01-27T01:22:20.005Z,25.77
2018-01-27T01:24:47.896Z,24.47
2018-01-27T01:27:16.014Z,23.50
2018-01-27T01:29:43.962Z,23.13
2018-01-27T01:32:11.754Z,23.63
2018-01-27T01:34:39.663Z,23.90
2018-01-27T01:37:07.685Z,24.00
2018-01-27T01:39:35.503Z,21.93
2018-01-27T01:42:03.404Z,23.20
2018-01-27T01:44:31.215Z,23.03
2018-01-27T01:46:59.079Z,23.10
2018-01-27T01:49:27.092Z,22.60
2018-01-27T01:51:54.984Z,22.87
2018-01-27T01:54:22.887Z,21.10
2018-01-27T01:56:50.784Z,21.90
2018-01-27T01:59:18.705Z,20.13
2018-01-27T02:01:46.482Z,21.40
2018-01-27T02:04:14.382Z,16.73
2018-01-27T02:06:42.242Z,19.70
2018-01-27T02:09:10.091Z,18.30
2018-01-27T02:11:37.966Z,21.07
2018-01-27T02:14:05.881Z,19.83
2018-01-27T02:16:33.680Z,19.70
2018-01-27T02:19:01.514Z,19.13
2018-01-27T02:21:29.423Z,22.07
2018-01-27T02:23:57.335Z,21.23
2018-01-27T02:26:25.226Z,20.93
2018-01-27T02:28:53.171Z,21.40
2018-01-27T02:31:21.075Z,21.40
2018-01-27T02:33:48.988Z,19.87
2018-01-27T02:36:16.781Z,21.40
2018-01-27T02:38:44.673Z,21.20
2018-01-27T02:41:12.592Z,20.57
2018-01-27T02:43:40.513Z,19.53
2018-01-27T02:46:08.395Z,19.93
2018-01-27T02:48:36.254Z,20.00
2018-01-27T02:51:04.061Z,19.47
2018-01-27T02:53:31.953Z,19.53
2018-01-27T02:55:59.914Z,20.33
2018-01-27T02:58:27.841Z,20.30
2018-01-27T03:00:55.781Z,19.03
2018-01-27T03:03:23.666Z,19.97
2018-01-27T03:05:51.602Z,19.70
2018-01-27T03:08:19.488Z,19.63
2018-01-27T03:10:47.394Z,19.70
2018-01-27T03:13:15.269Z,18.40
2018-01-27T03:15:43.067Z,17.37
2018-01-27T03:18:10.965Z,18.53
2018-01-27T03:20:38.878Z,17.90
2018-01-27T03:23:06.745Z,16.57
2018-01-27T03:25:34.678Z,15.53
2018-01-27T03:28:02.618Z,16.37
2018-01-27T03:30:30.520Z,15.00
2018-01-27T03:32:58.442Z,14.70
2018-01-27T03:35:26.250Z,16.67
2018-01-27T03:37:54.114Z,14.13
2018-01-27T03:40:21.972Z,16.90
2018-01-27T03:42:49.940Z,15.60
2018-01-27T03:45:17.755Z,14.73
2018-01-27T03:47:45.663Z,15.77
2018-01-27T03:50:13.505Z,14.73
2018-01-27T03:52:41.263Z,15.57
2018-01-27T03:55:09.178Z,15.00
2018-01-27T03:57:37.046Z,16.47
2018-01-27T04:00:04.952Z,16.07
2018-01-27T04:02:32.727Z,15.87
2018-01-27T04:05:00.755Z,14.80
2018-01-27T04:07:28.622Z,13.73
2018-01-27T04:09:56.564Z,14.80
2018-01-27T04:12:24.346Z,14.20
2018-01-27T04:14:52.286Z,15.70
2018-01-27T04:17:20.155Z,14.53
2018-01-27T04:19:47.984Z,14.10
2018-01-27T04:22:16.562Z,13.60
2018-01-27T04:24:44.512Z,15.43
2018-01-27T04:27:12.382Z,14.50
2018-01-27T04:29:40.350Z,14.67
2018-01-27T04:32:08.113Z,14.30
2018-01-27T04:34:35.996Z,13.50
2018-01-27T04:37:03.924Z,14.47
2018-01-27T04:39:31.786Z,14.40
2018-01-27T04:41:59.626Z,13.10
2018-01-27T04:44:27.511Z,14.23
2018-01-27T04:46:55.429Z,14.80
2018-01-27T04:49:23.204Z,15.70
2018-01-27T04:51:51.025Z,13.87
2018-01-27T04:54:18.886Z,13.63
2018-01-27T04:56:46.797Z,14.37
2018-01-27T04:59:14.653Z,13.40
2018-01-27T05:01:42.454Z,13.70
2018-01-27T05:04:10.311Z,14.83
2018-01-27T05:06:38.209Z,13.43
2018-01-27T05:09:05.970Z,14.57
2018-01-27T05:11:33.912Z,14.20
2018-01-27T05:14:01.787Z,13.70
2018-01-27T05:16:29.694Z,14.47
2018-01-27T05:18:57.457Z,12.90
2018-01-27T05:21:25.386Z,14.47
2018-01-27T05:23:53.262Z,14.97
2018-01-27T05:26:21.195Z,14.50
2018-01-27T05:28:49.069Z,12.97
2018-01-27T05:31:17.098Z,14.27
2018-01-27T05:33:44.843Z,14.57
2018-01-27T05:36:12.754Z,15.03
2018-01-27T05:38:40.513Z,14.93
2018-01-27T05:41:08.449Z,14.63
2018-01-27T05:43:36.370Z,14.73
2018-01-27T05:46:04.202Z,14.90
2018-01-27T05:48:31.968Z,14.13
2018-01-27T05:50:59.904Z,15.00
2018-01-27T05:53:27.767Z,14.70
2018-01-27T05:55:55.759Z,15.10
2018-01-27T05:58:23.708Z,16.17
2018-01-27T06:00:51.550Z,14.13
2018-01-27T06:03:19.436Z,14.87
2018-01-27T06:05:47.260Z,15.20
2018-01-27T06:08:15.218Z,14.00
2018-01-27T06:10:43.072Z,15.10
2018-01-27T06:13:10.944Z,13.63
2018-01-27T06:15:38.873Z,14.63
2018-01-27T06:18:06.775Z,14.33
2018-01-27T06:20:34.662Z,13.47
2018-01-27T06:23:02.569Z,14.40
2018-01-27T06:25:30.358Z,13.03
2018-01-27T06:27:58.301Z,12.70
2018-01-27T06:30:26.149Z,14.10
2018-01-27T06:32:54.122Z,13.23
2018-01-27T06:35:21.989Z,13.50
2018-01-27T06:37:50.004Z,13.80
2018-01-27T06:40:17.891Z,13.80
2018-01-27T06:42:45.768Z,14.47
2018-01-27T06:45:13.647Z,13.73
2018-01-27T06:47:41.557Z,12.67
2018-01-27T06:50:09.425Z,12.40
2018-01-27T06:52:37.217Z,13.07
2018-01-27T06:55:05.041Z,12.53
2018-01-27T06:57:32.955Z,12.60
2018-01-27T07:00:00.819Z,12.43
2018-01-27T07:02:28.617Z,14.10
2018-01-27T07:04:56.495Z,13.10
2018-01-27T07:07:24.453Z,13.53
2018-01-27T07:09:53.397Z,12.73
2018-01-27T07:12:21.355Z,12.37
2018-01-27T07:14:50.285Z,12.67
2018-01-27T07:17:18.103Z,11.73
2018-01-27T07:19:45.998Z,11.90
2018-01-27T07:22:13.941Z,12.67
2018-01-27T07:24:41.725Z,13.87
2018-01-27T07:27:09.524Z,12.20
2018-01-27T07:29:37.450Z,12.70
2018-01-27T07:32:05.385Z,12.67
2018-01-27T07:34:33.244Z,12.90
2018-01-27T07:37:01.229Z,14.00
2018-01-27T07:39:28.985Z,12.63
2018-01-27T07:41:56.873Z,11.57
2018-01-27T07:44:24.926Z,12.50
2018-01-27T07:46:53.215Z,12.43
2018-01-27T07:49:21.088Z,12.00
2018-01-27T07:51:49.113Z,12.00
2018-01-27T07:54:17.118Z,12.17
2018-01-27T07:56:45.223Z,12.80
2018-01-27T07:59:13.165Z,11.90
2018-01-27T08:01:41.014Z,11.23
2018-01-27T08:04:08.896Z,12.97
2018-01-27T08:06:36.718Z,13.13
2018-01-27T08:09:04.770Z,12.90
2018-01-27T08:11:32.712Z,12.33
2018-01-27T08:14:00.613Z,13.63
2018-01-27T08:16:28.514Z,13.00
2018-01-27T08:18:56.510Z,13.40
2018-01-27T08:21:24.269Z,14.20
2018-01-27T08:23:52.111Z,12.70
2018-01-27T08:26:20.011Z,13.37
2018-01-27T08:28:47.924Z,15.00
2018-01-27T08:31:15.686Z,15.00
2018-01-27T08:33:43.537Z,14.90
2018-01-27T08:36:12.373Z,14.33
2018-01-27T08:38:40.285Z,14.50
2018-01-27T08:41:08.045Z,15.03
2018-01-27T08:43:35.997Z,13.10
2018-01-27T08:46:03.890Z,14.10
2018-01-27T08:48:31.837Z,14.60
2018-01-27T08:50:59.645Z,14.67
2018-01-27T08:53:27.481Z,14.90
2018-01-27T08:55:55.355Z,80.40
2018-01-27T08:58:23.177Z,63.03
2018-01-27T09:00:50.966Z,56.93
2018-01-27T09:03:18.808Z,185.37
2018-01-27T09:05:46.582Z,95.53
2018-01-27T09:08:14.414Z,65.90
2018-01-27T09:10:42.171Z,15.20
2018-01-27T09:13:09.986Z,62.10
2018-01-27T09:15:37.761Z,33.03
2018-01-27T09:18:05.552Z,24.30
2018-01-27T09:20:33.342Z,21.53
2018-01-27T09:23:01.141Z,16.50
2018-01-27T09:25:28.890Z,14.53
2018-01-27T09:27:56.694Z,14.07
2018-01-27T09:30:24.476Z,17.47
2018-01-27T09:32:52.295Z,14.10
2018-01-27T09:35:20.069Z,13.20
2018-01-27T09:37:47.891Z,13.57
2018-01-27T09:40:15.656Z,13.97
2018-01-27T09:42:43.495Z,13.07
2018-01-27T09:45:11.276Z,12.70
2018-01-27T09:47:39.091Z,13.63
2018-01-27T09:50:06.958Z,15.00
2018-01-27T09:52:34.731Z,21.03
2018-01-27T09:55:02.554Z,13.83
2018-01-27T09:57:30.307Z,14.37
2018-01-27T09:59:58.182Z,12.60
2018-01-27T10:02:25.930Z,11.70
2018-01-27T10:04:53.733Z,12.93
2018-01-27T10:07:21.478Z,12.00
2018-01-27T10:09:49.338Z,12.10
2018-01-27T10:12:17.095Z,12.10
2018-01-27T10:14:44.874Z,11.37
2018-01-27T10:17:12.623Z,10.87
2018-01-27T10:19:40.440Z,10.83
2018-01-27T10:22:08.205Z,11.03
2018-01-27T10:24:36.035Z,11.97
2018-01-27T10:27:03.797Z,11.87
2018-01-27T10:29:31.610Z,11.87
2018-01-27T10:31:59.377Z,13.07
2018-01-27T10:34:27.178Z,12.53
2018-01-27T10:36:54.982Z,12.40
2018-01-27T10:39:22.774Z,12.03
2018-01-27T10:41:50.563Z,12.97
2018-01-27T10:44:18.377Z,10.90
2018-01-27T10:46:46.154Z,11.43
2018-01-27T10:49:14.021Z,10.60
2018-01-27T10:51:41.821Z,12.00
2018-01-27T10:54:09.620Z,11.27
2018-01-27T10:56:37.374Z,10.60
2018-01-27T10:59:07.831Z,11.27
2018-01-27T11:01:35.825Z,11.60
2018-01-27T11:04:03.764Z,10.77
2018-01-27T11:06:31.519Z,11.63
2018-01-27T11:08:59.343Z,10.77
2018-01-27T11:11:27.082Z,10.97
2018-01-27T11:13:54.900Z,10.30
2018-01-27T11:16:22.742Z,10.93
2018-01-27T11:18:50.583Z,10.60
2018-01-27T11:21:18.349Z,10.80
2018-01-27T11:23:46.178Z,9.30
2018-01-27T11:26:13.942Z,9.53
2018-01-27T11:28:41.758Z,9.50
2018-01-27T11:31:09.584Z,9.93
2018-01-27T11:33:37.361Z,9.93
2018-01-27T11:36:06.395Z,9.90
2018-01-27T11:38:34.214Z,9.13
2018-01-27T11:41:02.103Z,10.27
2018-01-27T11:43:29.889Z,9.57
2018-01-27T11:45:57.746Z,9.90
2018-01-27T11:48:25.761Z,10.60
2018-01-27T11:50:53.594Z,11.17
2018-01-27T11:53:21.419Z,10.60
2018-01-27T11:55:49.310Z,10.43
2018-01-27T11:58:17.090Z,10.93
2018-01-27T12:00:44.917Z,10.93
2018-01-27T12:03:12.734Z,11.80
2018-01-27T12:05:40.541Z,11.70
2018-01-27T12:08:08.298Z,12.30
2018-01-27T12:10:36.130Z,11.77
2018-01-27T12:13:03.886Z,12.30
2018-01-27T12:15:31.739Z,12.63
2018-01-27T12:17:59.538Z,12.03
2018-01-27T12:20:27.390Z,14.07
2018-01-27T12:22:55.167Z,12.23
2018-01-27T12:25:22.977Z,12.70
2018-01-27T12:27:50.774Z,13.80
2018-01-27T12:30:27.096Z,12.73
2018-01-27T12:32:55.148Z,13.17
2018-01-27T12:35:22.954Z,12.60
2018-01-27T12:37:50.743Z,13.47
2018-01-27T12:40:18.573Z,13.40
2018-01-27T12:42:46.356Z,11.83
2018-01-27T12:45:14.182Z,11.67
2018-01-27T12:47:41.978Z,12.77
2018-01-27T12:50:09.833Z,11.77
2018-01-27T12:52:37.613Z,12.23
2018-01-27T12:55:05.406Z,12.17
2018-01-27T12:57:33.163Z,12.90
2018-01-27T13:00:00.956Z,12.07
2018-01-27T13:02:28.711Z,12.37
2018-01-27T13:04:56.527Z,13.30
2018-01-27T13:07:24.261Z,12.50
2018-01-27T13:09:52.095Z,12.83
2018-01-27T13:12:19.854Z,11.80
2018-01-27T13:14:47.662Z,12.80
2018-01-27T13:17:15.440Z,12.10
2018-01-27T13:19:43.288Z,12.17
2018-01-27T13:22:11.188Z,13.40
2018-01-27T13:24:39.061Z,13.10
2018-01-27T13:27:06.884Z,13.00
2018-01-27T13:29:34.653Z,12.37
2018-01-27T13:32:02.548Z,12.63
2018-01-27T13:34:30.334Z,12.50
2018-01-27T13:36:58.191Z,13.73
2018-01-27T13:39:25.949Z,13.83
2018-01-27T13:41:53.786Z,14.17
2018-01-27T13:44:21.559Z,14.77
2018-01-27T13:46:49.381Z,15.40
2018-01-27T13:49:17.140Z,14.50
2018-01-27T13:51:45.893Z,15.00
2018-01-27T13:54:13.694Z,15.47
2018-01-27T13:56:41.581Z,16.47
2018-01-27T13:59:09.385Z,17.00
2018-01-27T14:01:38.128Z,17.80
2018-01-27T14:04:13.575Z,16.67
2018-01-27T14:06:41.427Z,18.00
2018-01-27T14:09:09.188Z,16.80
2018-01-27T14:11:37.025Z,18.23
2018-01-27T14:14:04.905Z,17.90
2018-01-27T14:16:32.729Z,16.93
2018-01-27T14:19:00.541Z,18.90
2018-01-27T14:21:28.393Z,19.37
2018-01-27T14:23:56.464Z,18.70
2018-01-27T14:26:24.291Z,17.80
2018-01-27T14:28:52.097Z,17.07
2018-01-27T14:31:19.955Z,17.83
2018-01-27T14:33:47.709Z,16.97
2018-01-27T14:36:15.535Z,18.07
2018-01-27T14:38:43.303Z,106.00
2018-01-27T14:41:11.072Z,39.23
2018-01-27T14:43:38.830Z,112.77
2018-01-27T14:46:06.647Z,84.63
2018-01-27T14:48:34.402Z,58.73
2018-01-27T14:51:02.289Z,60.37
2018-01-27T14:53:30.077Z,114.90
2018-01-27T14:55:57.959Z,66.30
2018-01-27T14:58:25.767Z,25.23
2018-01-27T15:00:53.567Z,32.33
2018-01-27T15:03:21.329Z,25.50
2018-01-27T15:05:49.167Z,18.17
2018-01-27T15:08:16.918Z,25.20
2018-01-27T15:10:44.734Z,17.40
2018-01-27T15:13:12.475Z,19.60
2018-01-27T15:15:40.267Z,21.00
2018-01-27T15:18:08.087Z,17.40
2018-01-27T15:20:35.838Z,19.70
2018-01-27T15:23:03.690Z,17.40
2018-01-27T15:25:31.454Z,17.20
2018-01-27T15:27:59.258Z,17.23
2018-01-27T15:30:27.005Z,17.33
2018-01-27T15:32:54.810Z,17.37
2018-01-27T15:35:22.618Z,16.00
2018-01-27T15:37:50.540Z,18.00
2018-01-27T15:40:18.423Z,18.43
2018-01-27T15:42:46.254Z,21.20
2018-01-27T15:45:14.120Z,25.00
2018-01-27T15:47:42.071Z,21.17
2018-01-27T15:50:09.982Z,17.60
2018-01-27T15:52:37.771Z,16.97
2018-01-27T15:55:05.654Z,17.53
2018-01-27T15:57:33.578Z,17.53
2018-01-27T16:00:01.453Z,19.40
2018-01-27T16:02:29.379Z,20.47
2018-01-27T16:04:57.249Z,16.67
2018-01-27T16:07:25.223Z,19.20
2018-01-27T16:09:53.120Z,16.83
2018-01-27T16:12:21.059Z,17.90
2018-01-27T16:14:48.935Z,17.07
2018-01-27T16:17:16.934Z,18.57
2018-01-27T16:19:44.681Z,17.13
2018-01-27T16:22:12.625Z,16.90
2018-01-27T16:24:40.533Z,17.20
2018-01-27T16:27:08.450Z,18.20
2018-01-27T16:29:36.319Z,17.00
2018-01-27T16:32:04.183Z,17.13
2018-01-27T16:34:31.981Z,18.43
2018-01-27T16:36:59.936Z,16.80
2018-01-27T16:39:27.770Z,18.20
2018-01-27T16:41:55.687Z,16.50
2018-01-27T16:44:23.539Z,18.17
2018-01-27T16:46:51.672Z,18.50
2018-01-27T16:49:19.573Z,18.03
2018-01-27T16:51:47.534Z,18.17
2018-01-27T16:54:15.398Z,17.67
2018-01-27T16:56:43.391Z,17.27
2018-01-27T16:59:11.282Z,18.30
2018-01-27T17:01:39.157Z,18.83
2018-01-27T17:04:07.076Z,16.10
2018-01-27T17:06:34.827Z,16.70
2018-01-27T17:09:02.770Z,18.07
2018-01-27T17:11:30.997Z,17.07
2018-01-27T17:13:58.948Z,16.87
2018-01-27T17:16:26.840Z,15.50
2018-01-27T17:18:54.748Z,16.93
2018-01-27T17:21:22.667Z,16.47
2018-01-27T17:23:50.608Z,16.17
2018-01-27T17:26:18.479Z,16.90
2018-01-27T17:28:46.377Z,16.80
2018-01-27T17:31:14.245Z,17.10
2018-01-27T17:33:42.189Z,16.57
2018-01-27T17:36:10.064Z,16.80
2018-01-27T17:38:38.110Z,17.17
2018-01-27T17:41:06.001Z,16.33
2018-01-27T17:43:33.942Z,17.53
2018-01-27T17:46:01.845Z,16.30
2018-01-27T17:48:29.820Z,18.20
2018-01-27T17:50:57.707Z,16.30
2018-01-27T17:53:25.674Z,17.27
2018-01-27T17:55:53.535Z,16.30
2018-01-27T17:58:21.506Z,18.83
2018-01-27T18:00:49.281Z,16.37
2018-01-27T18:03:17.306Z,16.70
2018-01-27T18:05:45.166Z,16.80
2018-01-27T18:08:13.107Z,17.50
2018-01-27T18:10:40.961Z,16.80
2018-01-27T18:13:08.870Z,16.90
2018-01-27T18:15:36.763Z,18.13
2018-01-27T18:18:04.796Z,16.80
2018-01-27T18:20:32.670Z,17.43
2018-01-27T18:23:00.616Z,17.50
2018-01-27T18:25:28.533Z,16.17
2018-01-27T18:27:56.446Z,18.00
2018-01-27T18:30:24.347Z,16.13
2018-01-27T18:32:52.292Z,16.43
2018-01-27T18:35:20.203Z,17.37
2018-01-27T18:37:48.126Z,17.27
2018-01-27T18:40:16.046Z,16.50
2018-01-27T18:42:43.964Z,17.03
2018-01-27T18:45:11.848Z,16.53
2018-01-27T18:47:39.735Z,17.43
2018-01-27T18:50:07.642Z,17.10
2018-01-27T18:52:35.494Z,18.10
2018-01-27T18:55:03.437Z,18.10
2018-01-27T18:57:31.450Z,16.93
2018-01-27T18:59:59.362Z,18.03
2018-01-27T19:02:27.148Z,17.93
2018-01-27T19:04:55.068Z,18.50
2018-01-27T19:07:22.926Z,18.20
2018-01-27T19:09:50.855Z,18.70
2018-01-27T19:12:18.601Z,17.57
2018-01-27T19:14:46.467Z,18.30
2018-01-27T19:17:14.338Z,18.33
2018-01-27T19:19:42.261Z,18.13
2018-01-27T19:22:10.117Z,17.50
2018-01-27T19:24:38.077Z,18.57
2018-01-27T19:27:05.924Z,19.40
2018-01-27T19:29:33.858Z,17.37
2018-01-27T19:32:01.760Z,17.87
2018-01-27T19:34:29.710Z,18.53
2018-01-27T19:36:57.580Z,19.13
2018-01-27T19:39:25.550Z,18.07
2018-01-27T19:41:53.422Z,17.57
2018-01-27T19:44:21.331Z,16.73
2018-01-27T19:46:49.255Z,20.20
2018-01-27T19:49:17.203Z,19.13
2018-01-27T19:51:45.140Z,17.77
2018-01-27T19:54:12.956Z,18.97
2018-01-27T19:56:40.816Z,16.07
2018-01-27T19:59:08.745Z,18.53
2018-01-27T20:01:36.489Z,17.10
2018-01-27T20:04:04.436Z,16.90
2018-01-27T20:06:32.310Z,16.90
2018-01-27T20:09:00.226Z,18.07
2018-01-27T20:11:28.086Z,17.33
2018-01-27T20:13:55.991Z,16.17
2018-01-27T20:16:23.889Z,16.67
2018-01-27T20:18:51.811Z,17.77
2018-01-27T20:21:19.706Z,16.07
2018-01-27T20:23:47.646Z,15.57
2018-01-27T20:26:15.519Z,16.90
2018-01-27T20:28:43.409Z,16.83
2018-01-27T20:31:11.159Z,16.80
2018-01-27T20:33:39.114Z,16.83
2018-01-27T20:36:07.048Z,16.20
2018-01-27T20:38:35.005Z,16.30
2018-01-27T20:41:02.938Z,16.53
2018-01-27T20:43:30.826Z,15.00
2018-01-27T20:45:58.818Z,15.73
2018-01-27T20:48:26.735Z,15.53
2018-01-27T20:50:54.709Z,15.00
2018-01-27T20:53:22.686Z,14.37
2018-01-27T20:55:50.670Z,16.67
2018-01-27T20:58:18.564Z,16.00
2018-01-27T21:00:46.555Z,15.67
2018-01-27T21:03:14.471Z,12.97
2018-01-27T21:05:42.396Z,13.23
2018-01-27T21:08:10.258Z,14.20
2018-01-27T21:10:38.187Z,13.60
2018-01-27T21:13:06.040Z,14.27
2018-01-27T21:15:33.966Z,14.97
2018-01-27T21:18:01.846Z,13.83
2018-01-27T21:20:29.762Z,14.43
2018-01-27T21:22:57.603Z,13.70
2018-01-27T21:25:25.602Z,12.90
2018-01-27T21:27:53.455Z,13.37
2018-01-27T21:30:21.391Z,12.30
2018-01-27T21:32:49.315Z,11.77
2018-01-27T21:35:17.284Z,11.23
2018-01-27T21:37:45.183Z,11.80
2018-01-27T21:40:13.238Z,10.90
2018-01-27T21:42:41.146Z,10.10
2018-01-27T21:45:09.054Z,10.90
2018-01-27T21:47:36.942Z,10.47
2018-01-27T21:50:04.844Z,10.53
2018-01-27T21:52:32.736Z,10.30
2018-01-27T21:55:00.674Z,10.37
2018-01-27T21:57:28.538Z,9.90
2018-01-27T21:59:56.439Z,10.27
2018-01-27T22:02:24.285Z,9.50
2018-01-27T22:04:52.257Z,9.70
2018-01-27T22:07:20.130Z,8.60
2018-01-27T22:09:49.119Z,9.13
2018-01-27T22:12:16.979Z,8.77
2018-01-27T22:14:44.906Z,8.73
2018-01-27T22:17:12.764Z,9.30
2018-01-27T22:19:40.613Z,8.40
2018-01-27T22:22:08.527Z,8.40
2018-01-27T22:24:36.306Z,9.20
2018-01-27T22:27:04.296Z,8.87
2018-01-27T22:29:32.186Z,9.40
2018-01-27T22:32:00.196Z,8.73
2018-01-27T22:34:28.096Z,8.50
2018-01-27T22:36:55.997Z,7.87
2018-01-27T22:39:23.894Z,8.10
2018-01-27T22:41:51.788Z,7.57
2018-01-27T22:44:19.637Z,8.27
2018-01-27T22:46:47.534Z,7.40
2018-01-27T22:49:15.387Z,7.90
2018-01-27T22:51:43.282Z,7.97
2018-01-27T22:54:11.145Z,7.43
2018-01-27T22:56:39.074Z,6.70
2018-01-27T22:59:06.993Z,7.20
2018-01-27T23:01:34.786Z,7.10
2018-01-27T23:04:02.563Z,7.10
2018-01-27T23:06:31.247Z,7.70
2018-01-27T23:08:59.053Z,6.60
2018-01-27T23:11:26.898Z,7.57
2018-01-27T23:13:54.657Z,6.80
2018-01-27T23:16:22.514Z,6.77
2018-01-27T23:18:50.350Z,6.27
2018-01-27T23:21:18.178Z,6.17
2018-01-27T23:23:46.034Z,6.40
2018-01-27T23:26:13.803Z,6.23
2018-01-27T23:28:41.575Z,6.03
2018-01-27T23:31:09.384Z,5.70
2018-01-27T23:33:37.206Z,5.50
2018-01-27T23:36:04.985Z,4.80
2018-01-27T23:38:32.773Z,6.20
2018-01-27T23:41:00.570Z,5.40
2018-01-27T23:43:28.464Z,5.60
2018-01-27T23:45:56.295Z,5.60
2018-01-27T23:48:24.039Z,5.47
2018-01-27T23:50:51.941Z,5.67
2018-01-27T23:53:19.703Z,5.40
2018-01-27T23:55:47.505Z,5.57
2018-01-27T23:58:15.371Z,5.20
